Coopers Mills, Maine
Current Conditions -  °F | °C
As of 5:53 PM on Saturday 20 Dec 2014 (Local Time) from KAUG Reporting Station
Overcast Overcast  
Wind Chill:   Ceiling: 900
Heat Index: 20°   Visibility: 10mi
Dew Point: 16°   Wind: 10mph
Humidity: 85%   Direction: 30°NNE
Pressure: 30.35"   Gusts: NA
Location:  44.26°N, 69.55°W
Report Text: KAUG 202253Z AUTO 03009KT 10SM OVC009 M07/M09 A3035 RMK AO2 SLP286 T10671089
Loading
Personal Weather Stations






























Interactive Weather Map New forecast layout! Learn more

10-Day Weather Forecast

Advertisements
Track Severe Weather on mobile